Time,TemperatureF,DewpointF,PressureIn,WindDirection,WindDirectionDegrees,WindSpeedMPH,WindSpeedGustMPH,Humidity,HourlyPrecipIn,Conditions,Clouds,dailyrainin,SoftwareType,DateUTC
2013-05-23 00:08:00,74.1,66.9,29.98,SSW,202,0.0,-999.0,78,0.00,,,1.14,open2300 v1.10,2013-05-23 05:08:00,
2013-05-23 00:18:00,73.8,66.5,29.98,SSW,202,0.0,-999.0,78,0.00,,,1.14,open2300 v1.10,2013-05-23 05:18:00,
2013-05-23 00:28:00,73.4,66.5,29.98,WNW,292,1.1,-999.0,79,0.00,,,1.14,open2300 v1.10,2013-05-23 05:28:00,
2013-05-23 00:33:00,73.4,66.9,29.98,West,270,0.0,-999.0,80,0.00,,,1.14,open2300 v1.10,2013-05-23 05:33:00,
2013-05-23 00:38:00,73.2,66.7,29.98,WNW,292,0.0,-999.0,80,0.00,,,1.14,open2300 v1.10,2013-05-23 05:38:00,
2013-05-23 00:43:00,73.2,66.7,29.98,WNW,292,0.0,-999.0,80,0.00,,,1.14,open2300 v1.10,2013-05-23 05:43:00,
2013-05-23 00:48:00,73.2,66.7,29.98,WNW,292,0.0,-999.0,80,0.00,,,1.14,open2300 v1.10,2013-05-23 05:48:00,
2013-05-23 00:53:00,73.2,66.7,29.98,WNW,292,0.0,-999.0,80,0.00,,,1.14,open2300 v1.10,2013-05-23 05:53:00,
2013-05-23 00:58:00,73.2,66.7,29.98,WNW,292,0.0,-999.0,80,0.00,,,1.14,open2300 v1.10,2013-05-23 05:58:00,
2013-05-23 01:10:00,73.2,66.7,29.98,WNW,292,0.0,-999.0,80,0.00,,,1.14,open2300 v1.10,2013-05-23 06:10:00,
2013-05-23 01:18:00,73.0,66.6,29.98,WNW,292,0.0,-999.0,80,0.00,,,1.14,open2300 v1.10,2013-05-23 06:18:00,
2013-05-23 01:23:00,72.7,66.2,29.98,WNW,292,0.0,-999.0,80,0.00,,,1.14,open2300 v1.10,2013-05-23 06:23:00,
2013-05-23 01:33:00,72.3,66.2,29.98,WNW,292,0.0,-999.0,81,0.00,,,1.14,open2300 v1.10,2013-05-23 06:33:00,
2013-05-23 01:38:00,72.1,66.0,29.97,WNW,292,0.0,-999.0,81,0.00,,,1.14,open2300 v1.10,2013-05-23 06:38:00,
2013-05-23 01:48:00,72.0,65.8,29.98,WNW,292,0.0,-999.0,81,0.00,,,1.14,open2300 v1.10,2013-05-23 06:48:00,
2013-05-23 01:53:00,72.0,66.2,29.98,WNW,292,0.0,-999.0,82,0.00,,,1.14,open2300 v1.10,2013-05-23 06:53:00,
2013-05-23 01:58:00,72.0,66.2,29.98,WNW,292,0.0,-999.0,82,0.00,,,1.14,open2300 v1.10,2013-05-23 06:58:00,
2013-05-23 02:07:00,72.0,66.2,29.98,WNW,292,0.0,-999.0,82,0.00,,,0.73,open2300 v1.10,2013-05-23 07:07:00,
2013-05-23 02:13:00,72.1,66.3,29.98,WNW,292,0.0,-999.0,82,0.00,,,0.73,open2300 v1.10,2013-05-23 07:13:00,
2013-05-23 02:18:00,72.1,66.3,29.98,WNW,292,0.0,-999.0,82,0.00,,,0.73,open2300 v1.10,2013-05-23 07:18:00,
2013-05-23 02:23:00,72.3,66.5,29.98,WNW,292,0.0,-999.0,82,0.00,,,0.73,open2300 v1.10,2013-05-23 07:23:00,
2013-05-23 02:28:00,72.3,66.5,29.98,WNW,292,0.0,-999.0,82,0.00,,,0.73,open2300 v1.10,2013-05-23 07:28:00,
2013-05-23 02:33:00,72.3,66.5,29.98,WNW,292,0.0,-999.0,82,0.00,,,0.73,open2300 v1.10,2013-05-23 07:33:00,
2013-05-23 02:38:00,72.3,66.5,29.98,WNW,292,0.0,-999.0,82,0.00,,,0.73,open2300 v1.10,2013-05-23 07:38:00,
2013-05-23 02:43:00,72.3,66.5,29.98,WNW,292,0.0,-999.0,82,0.00,,,0.73,open2300 v1.10,2013-05-23 07:43:00,
2013-05-23 02:48:00,72.3,66.5,29.99,WNW,292,0.0,-999.0,82,0.00,,,0.73,open2300 v1.10,2013-05-23 07:48:00,
2013-05-23 02:54:00,72.3,66.5,29.99,WNW,292,0.0,-999.0,82,0.00,,,0.73,open2300 v1.10,2013-05-23 07:54:00,
2013-05-23 03:04:00,72.3,66.5,29.98,WNW,292,0.0,-999.0,82,0.00,,,0.53,open2300 v1.10,2013-05-23 08:04:00,
2013-05-23 03:13:00,72.3,66.5,29.99,West,270,0.0,-999.0,82,0.00,,,0.53,open2300 v1.10,2013-05-23 08:13:00,
2013-05-23 03:18:00,72.3,66.5,29.99,WNW,292,0.0,-999.0,82,0.00,,,0.53,open2300 v1.10,2013-05-23 08:18:00,
2013-05-23 03:23:00,72.1,66.3,29.99,WNW,292,0.0,-999.0,82,0.00,,,0.53,open2300 v1.10,2013-05-23 08:23:00,
2013-05-23 03:28:00,72.1,66.3,29.99,West,270,0.0,-999.0,82,0.00,,,0.53,open2300 v1.10,2013-05-23 08:28:00,
2013-05-23 03:33:00,72.1,66.3,29.99,West,270,0.0,-999.0,82,0.00,,,0.53,open2300 v1.10,2013-05-23 08:33:00,
2013-05-23 03:38:00,72.1,66.3,29.99,West,270,0.0,-999.0,82,0.00,,,0.53,open2300 v1.10,2013-05-23 08:38:00,
2013-05-23 03:43:00,72.1,66.3,29.99,West,270,0.0,-999.0,82,0.00,,,0.53,open2300 v1.10,2013-05-23 08:43:00,
2013-05-23 03:48:00,72.1,66.3,29.99,West,270,0.0,-999.0,82,0.00,,,0.53,open2300 v1.10,2013-05-23 08:48:00,
2013-05-23 03:53:00,72.1,66.3,29.99,West,270,0.0,-999.0,82,0.00,,,0.53,open2300 v1.10,2013-05-23 08:53:00,
2013-05-23 03:58:00,72.1,66.3,29.99,WNW,292,0.0,-999.0,82,0.00,,,0.53,open2300 v1.10,2013-05-23 08:58:00,
2013-05-23 04:08:00,72.0,66.2,29.99,WNW,292,0.0,-999.0,82,0.00,,,0.41,open2300 v1.10,2013-05-23 09:08:00,
2013-05-23 04:13:00,72.1,66.3,29.99,WNW,292,0.0,-999.0,82,0.00,,,0.41,open2300 v1.10,2013-05-23 09:13:00,
2013-05-23 04:18:00,72.1,66.3,29.99,WNW,292,0.0,-999.0,82,0.00,,,0.41,open2300 v1.10,2013-05-23 09:18:00,
2013-05-23 04:23:00,72.1,66.3,29.99,WNW,292,0.0,-999.0,82,0.00,,,0.41,open2300 v1.10,2013-05-23 09:23:00,
2013-05-23 04:28:00,72.0,66.2,29.99,WNW,292,0.0,-999.0,82,0.00,,,0.41,open2300 v1.10,2013-05-23 09:28:00,
2013-05-23 04:33:00,72.0,66.2,29.99,WNW,292,0.0,-999.0,82,0.00,,,0.41,open2300 v1.10,2013-05-23 09:33:00,
2013-05-23 04:38:00,72.0,66.2,29.99,WNW,292,0.0,-999.0,82,0.00,,,0.41,open2300 v1.10,2013-05-23 09:38:00,
2013-05-23 04:48:00,72.0,66.2,29.99,WNW,292,0.0,-999.0,82,0.00,,,0.41,open2300 v1.10,2013-05-23 09:48:00,
2013-05-23 04:53:00,71.8,66.0,29.99,WNW,292,0.0,-999.0,82,0.00,,,0.41,open2300 v1.10,2013-05-23 09:53:00,
2013-05-23 04:58:00,71.8,66.0,29.99,WNW,292,0.0,-999.0,82,0.00,,,0.41,open2300 v1.10,2013-05-23 09:58:00,
2013-05-23 05:10:00,71.8,66.0,29.99,WNW,292,0.0,-999.0,82,0.00,,,0.22,open2300 v1.10,2013-05-23 10:10:00,
2013-05-23 05:18:00,71.8,66.0,30.00,WNW,292,0.0,-999.0,82,0.00,,,0.22,open2300 v1.10,2013-05-23 10:18:00,
2013-05-23 05:23:00,71.6,65.8,30.00,WNW,292,0.0,-999.0,82,0.00,,,0.22,open2300 v1.10,2013-05-23 10:23:00,
2013-05-23 05:28:00,71.4,65.6,30.00,WNW,292,0.0,-999.0,82,0.00,,,0.22,open2300 v1.10,2013-05-23 10:28:00,
2013-05-23 05:33:00,71.4,65.6,30.01,WNW,292,0.0,-999.0,82,0.00,,,0.22,open2300 v1.10,2013-05-23 10:33:00,
2013-05-23 05:38:00,71.4,65.6,30.00,WNW,292,0.0,-999.0,82,0.00,,,0.22,open2300 v1.10,2013-05-23 10:38:00,
2013-05-23 05:48:00,71.4,65.6,30.01,WNW,292,0.0,-999.0,82,0.00,,,0.22,open2300 v1.10,2013-05-23 10:48:00,
2013-05-23 05:53:00,71.2,65.4,30.01,WNW,292,0.0,-999.0,82,0.00,,,0.22,open2300 v1.10,2013-05-23 10:53:00,
2013-05-23 05:59:00,71.1,65.3,30.01,WNW,292,0.0,-999.0,82,0.00,,,0.22,open2300 v1.10,2013-05-23 10:59:00,
2013-05-23 06:08:00,70.3,64.5,30.01,WNW,292,0.0,-999.0,82,0.00,,,0.02,open2300 v1.10,2013-05-23 11:08:00,
2013-05-23 06:13:00,70.2,64.4,30.01,WNW,292,0.0,-999.0,82,0.00,,,0.02,open2300 v1.10,2013-05-23 11:13:00,
2013-05-23 06:18:00,69.8,64.0,30.02,WNW,292,0.0,-999.0,82,0.00,,,0.02,open2300 v1.10,2013-05-23 11:18:00,
2013-05-23 06:23:00,69.6,63.8,30.02,WNW,292,0.0,-999.0,82,0.00,,,0.02,open2300 v1.10,2013-05-23 11:23:00,
2013-05-23 06:28:00,69.4,63.7,30.02,WNW,292,0.0,-999.0,82,0.00,,,0.02,open2300 v1.10,2013-05-23 11:28:00,
2013-05-23 06:33:00,69.4,63.7,30.02,WNW,292,0.0,-999.0,82,0.00,,,0.02,open2300 v1.10,2013-05-23 11:33:00,
2013-05-23 06:38:00,69.4,64.0,30.03,WNW,292,0.0,-999.0,83,0.00,,,0.02,open2300 v1.10,2013-05-23 11:38:00,
2013-05-23 06:43:00,69.4,64.0,30.03,WNW,292,0.0,-999.0,83,0.00,,,0.02,open2300 v1.10,2013-05-23 11:43:00,
2013-05-23 06:48:00,69.8,64.7,30.04,WNW,292,0.0,-999.0,84,0.00,,,0.02,open2300 v1.10,2013-05-23 11:48:00,
2013-05-23 06:53:00,70.2,65.1,30.04,WNW,292,0.0,-999.0,84,0.00,,,0.02,open2300 v1.10,2013-05-23 11:53:00,
2013-05-23 06:58:00,70.5,65.4,30.04,WNW,292,0.0,-999.0,84,0.00,,,0.02,open2300 v1.10,2013-05-23 11:58:00,
2013-05-23 07:08:00,71.8,66.3,30.04,WNW,292,0.0,-999.0,83,0.00,,,0.00,open2300 v1.10,2013-05-23 12:08:00,
2013-05-23 07:13:00,72.1,66.7,30.04,WNW,292,0.0,-999.0,83,0.00,,,0.00,open2300 v1.10,2013-05-23 12:13:00,
2013-05-23 07:23:00,73.2,67.1,30.04,WNW,292,0.0,-999.0,81,0.00,,,0.00,open2300 v1.10,2013-05-23 12:23:00,
2013-05-23 07:33:00,74.1,67.6,30.04,WNW,292,0.0,-999.0,80,0.00,,,0.00,open2300 v1.10,2013-05-23 12:33:00,
2013-05-23 07:38:00,74.5,68.0,30.04,WNW,292,0.0,-999.0,80,0.00,,,0.00,open2300 v1.10,2013-05-23 12:38:00,
2013-05-23 07:48:00,75.2,68.3,30.04,WNW,292,4.5,-999.0,79,0.00,,,0.00,open2300 v1.10,2013-05-23 12:48:00,
2013-05-23 07:53:00,75.4,68.5,30.04,WNW,292,2.9,-999.0,79,0.00,,,0.00,open2300 v1.10,2013-05-23 12:53:00,
2013-05-23 07:58:00,75.7,68.4,30.04,WNW,292,0.0,-999.0,78,0.00,,,0.00,open2300 v1.10,2013-05-23 12:58:00,
2013-05-23 08:08:00,76.3,68.9,30.05,West,270,4.0,-999.0,78,0.00,,,0.00,open2300 v1.10,2013-05-23 13:08:00,
2013-05-23 08:13:00,76.8,69.0,30.05,WNW,292,6.9,-999.0,77,0.00,,,0.00,open2300 v1.10,2013-05-23 13:13:00,
2013-05-23 08:18:00,77.2,69.4,30.05,WNW,292,0.0,-999.0,77,0.00,,,0.00,open2300 v1.10,2013-05-23 13:18:00,
2013-05-23 08:23:00,77.4,69.6,30.05,NW,315,0.0,-999.0,77,0.00,,,0.00,open2300 v1.10,2013-05-23 13:23:00,
2013-05-23 08:28:00,77.5,69.3,30.05,WNW,292,0.0,-999.0,76,0.00,,,0.00,open2300 v1.10,2013-05-23 13:28:00,
2013-05-23 08:33:00,78.1,69.8,30.05,West,270,0.0,-999.0,76,0.00,,,0.00,open2300 v1.10,2013-05-23 13:33:00,
2013-05-23 08:38:00,78.4,70.2,30.05,WNW,292,0.0,-999.0,76,0.00,,,0.00,open2300 v1.10,2013-05-23 13:38:00,
2013-05-23 08:48:00,79.2,70.5,30.05,WNW,292,5.1,-999.0,75,0.00,,,0.00,open2300 v1.10,2013-05-23 13:48:00,
2013-05-23 08:53:00,79.3,70.3,30.05,WNW,292,0.0,-999.0,74,0.00,,,0.00,open2300 v1.10,2013-05-23 13:53:00,
2013-05-23 08:59:00,79.5,70.5,30.04,WNW,292,0.0,-999.0,74,0.00,,,0.00,open2300 v1.10,2013-05-23 13:59:00,
2013-05-23 09:08:00,80.4,71.0,30.05,WNW,292,0.0,-999.0,73,0.00,,,0.00,open2300 v1.10,2013-05-23 14:08:00,
2013-05-23 09:13:00,80.6,71.2,30.05,SSW,202,0.0,-999.0,73,0.00,,,0.00,open2300 v1.10,2013-05-23 14:13:00,
2013-05-23 09:18:00,81.3,71.8,30.05,NNW,337,0.0,-999.0,73,0.00,,,0.00,open2300 v1.10,2013-05-23 14:18:00,
2013-05-23 09:23:00,81.9,71.9,30.05,NW,315,0.0,-999.0,72,0.00,,,0.00,open2300 v1.10,2013-05-23 14:23:00,
2013-05-23 09:28:00,82.4,72.0,30.05,West,270,0.0,-999.0,71,0.00,,,0.00,open2300 v1.10,2013-05-23 14:28:00,
2013-05-23 09:33:00,83.1,72.3,30.05,SSW,202,0.0,-999.0,70,0.00,,,0.00,open2300 v1.10,2013-05-23 14:33:00,
2013-05-23 09:38:00,83.8,73.0,30.05,West,270,0.0,-999.0,70,0.00,,,0.00,open2300 v1.10,2013-05-23 14:38:00,
2013-05-23 09:43:00,84.4,73.1,30.05,SSW,202,0.0,-999.0,69,0.00,,,0.00,open2300 v1.10,2013-05-23 14:43:00,
2013-05-23 09:48:00,85.3,73.1,30.05,SSE,157,0.0,-999.0,67,0.00,,,0.00,open2300 v1.10,2013-05-23 14:48:00,
2013-05-23 09:54:00,85.6,73.0,30.05,SSE,157,0.0,-999.0,66,0.00,,,0.00,open2300 v1.10,2013-05-23 14:54:00,
2013-05-23 09:59:00,85.8,72.7,30.05,WNW,292,0.0,-999.0,65,0.00,,,0.00,open2300 v1.10,2013-05-23 14:59:00,
2013-05-23 10:08:00,85.8,72.2,30.05,ESE,112,0.0,-999.0,64,0.00,,,0.00,open2300 v1.10,2013-05-23 15:08:00,
2013-05-23 10:13:00,86.2,72.6,30.06,South,180,6.9,-999.0,64,0.00,,,0.00,open2300 v1.10,2013-05-23 15:13:00,
2013-05-23 10:18:00,86.5,72.4,30.05,WNW,292,0.0,-999.0,63,0.00,,,0.00,open2300 v1.10,2013-05-23 15:18:00,
2013-05-23 10:23:00,86.7,72.2,30.06,SE,135,0.0,-999.0,62,0.00,,,0.00,open2300 v1.10,2013-05-23 15:23:00,
2013-05-23 10:28:00,86.7,72.2,30.05,SE,135,0.0,-999.0,62,0.00,,,0.00,open2300 v1.10,2013-05-23 15:28:00,
2013-05-23 10:33:00,87.1,72.1,30.06,NNW,337,0.0,-999.0,61,0.00,,,0.00,open2300 v1.10,2013-05-23 15:33:00,
2013-05-23 10:38:00,87.1,72.1,30.06,NW,315,0.0,-999.0,61,0.00,,,0.00,open2300 v1.10,2013-05-23 15:38:00,
2013-05-23 10:48:00,86.7,71.2,30.05,SSW,202,0.0,-999.0,60,0.00,,,0.00,open2300 v1.10,2013-05-23 15:48:00,
2013-05-23 10:53:00,86.7,71.2,30.05,WNW,292,4.9,-999.0,60,0.00,,,0.00,open2300 v1.10,2013-05-23 15:53:00,
2013-05-23 10:59:00,86.7,71.2,30.06,WSW,247,3.8,-999.0,60,0.00,,,0.00,open2300 v1.10,2013-05-23 15:59:00,
2013-05-23 11:08:00,86.7,71.2,30.06,West,270,0.0,-999.0,60,0.00,,,0.00,open2300 v1.10,2013-05-23 16:08:00,
2013-05-23 11:13:00,86.9,71.4,30.06,NW,315,0.0,-999.0,60,0.00,,,0.00,open2300 v1.10,2013-05-23 16:13:00,
2013-05-23 11:18:00,87.1,70.5,30.07,ESE,112,0.0,-999.0,58,0.00,,,0.00,open2300 v1.10,2013-05-23 16:18:00,
2013-05-23 11:23:00,87.1,70.5,30.07,South,180,5.8,-999.0,58,0.00,,,0.00,open2300 v1.10,2013-05-23 16:23:00,
2013-05-23 11:28:00,87.4,69.8,30.07,SE,135,0.0,-999.0,56,0.00,,,0.00,open2300 v1.10,2013-05-23 16:28:00,
2013-05-23 11:33:00,87.6,70.0,30.07,South,180,0.0,-999.0,56,0.00,,,0.00,open2300 v1.10,2013-05-23 16:33:00,
2013-05-23 11:38:00,87.6,70.5,30.08,West,270,0.0,-999.0,57,0.00,,,0.00,open2300 v1.10,2013-05-23 16:38:00,
2013-05-23 11:48:00,87.6,70.5,30.07,SW,225,0.0,-999.0,57,0.00,,,0.00,open2300 v1.10,2013-05-23 16:48:00,
2013-05-23 11:53:00,87.6,70.0,30.07,WNW,292,0.0,-999.0,56,0.00,,,0.00,open2300 v1.10,2013-05-23 16:53:00,
2013-05-23 11:58:00,88.0,70.3,30.07,West,270,0.0,-999.0,56,0.00,,,0.00,open2300 v1.10,2013-05-23 16:58:00,
2013-05-23 12:08:00,87.6,70.0,30.07,SE,135,0.0,-999.0,56,0.00,,,0.00,open2300 v1.10,2013-05-23 17:08:00,
2013-05-23 12:13:00,87.6,69.4,30.06,SE,135,0.0,-999.0,55,0.00,,,0.00,open2300 v1.10,2013-05-23 17:13:00,
2013-05-23 12:18:00,87.8,68.5,30.06,SSE,157,0.0,-999.0,53,0.00,,,0.00,open2300 v1.10,2013-05-23 17:18:00,
2013-05-23 12:23:00,87.8,68.5,30.06,ESE,112,0.0,-999.0,53,0.00,,,0.00,open2300 v1.10,2013-05-23 17:23:00,
2013-05-23 12:33:00,87.8,69.1,30.06,SW,225,6.5,-999.0,54,0.00,,,0.00,open2300 v1.10,2013-05-23 17:33:00,
2013-05-23 12:38:00,87.8,69.1,30.06,South,180,4.5,-999.0,54,0.00,,,0.00,open2300 v1.10,2013-05-23 17:38:00,
2013-05-23 12:48:00,88.3,69.6,30.06,South,180,0.0,-999.0,54,0.00,,,0.00,open2300 v1.10,2013-05-23 17:48:00,
2013-05-23 12:53:00,88.3,69.0,30.06,West,270,0.0,-999.0,53,0.00,,,0.00,open2300 v1.10,2013-05-23 17:53:00,
2013-05-23 12:59:00,88.3,68.5,30.06,NW,315,2.7,-999.0,52,0.00,,,0.00,open2300 v1.10,2013-05-23 17:59:00,
2013-05-23 13:08:00,88.2,69.4,30.06,NW,315,0.0,-999.0,54,0.00,,,0.00,open2300 v1.10,2013-05-23 18:08:00,
2013-05-23 13:13:00,88.2,69.4,30.06,SSW,202,0.0,-999.0,54,0.00,,,0.00,open2300 v1.10,2013-05-23 18:13:00,
2013-05-23 13:18:00,88.2,68.9,30.06,SSW,202,0.2,-999.0,53,0.00,,,0.00,open2300 v1.10,2013-05-23 18:18:00,
2013-05-23 13:23:00,88.3,69.0,30.06,WNW,292,8.9,-999.0,53,0.00,,,0.00,open2300 v1.10,2013-05-23 18:23:00,
2013-05-23 13:28:00,88.3,69.6,30.06,WNW,292,5.4,-999.0,54,0.00,,,0.00,open2300 v1.10,2013-05-23 18:28:00,
2013-05-23 13:33:00,88.2,69.4,30.06,NW,315,6.7,-999.0,54,0.00,,,0.00,open2300 v1.10,2013-05-23 18:33:00,
2013-05-23 13:38:00,88.2,69.9,30.05,West,270,6.7,-999.0,55,0.00,,,0.00,open2300 v1.10,2013-05-23 18:38:00,
2013-05-23 13:43:00,88.2,69.9,30.06,WNW,292,4.7,-999.0,55,0.00,,,0.00,open2300 v1.10,2013-05-23 18:43:00,
2013-05-23 13:48:00,88.2,68.9,30.05,SSW,202,0.0,-999.0,53,0.00,,,0.00,open2300 v1.10,2013-05-23 18:48:00,
2013-05-23 13:53:00,88.3,69.6,30.05,SSW,202,5.8,-999.0,54,0.00,,,0.00,open2300 v1.10,2013-05-23 18:53:00,
2013-05-23 13:59:00,88.5,69.2,30.05,SSW,202,2.2,-999.0,53,0.00,,,0.00,open2300 v1.10,2013-05-23 18:59:00,
2013-05-23 14:08:00,89.2,69.3,30.05,WNW,292,6.0,-999.0,52,0.00,,,0.00,open2300 v1.10,2013-05-23 19:08:00,
2013-05-23 14:13:00,89.2,69.8,30.05,WSW,247,8.3,-999.0,53,0.00,,,0.00,open2300 v1.10,2013-05-23 19:13:00,
2013-05-23 14:18:00,89.4,70.0,30.05,West,270,5.8,-999.0,53,0.00,,,0.00,open2300 v1.10,2013-05-23 19:18:00,
2013-05-23 14:23:00,89.2,69.8,30.05,WNW,292,0.0,-999.0,53,0.00,,,0.00,open2300 v1.10,2013-05-23 19:23:00,
2013-05-23 14:28:00,89.2,70.4,30.04,WNW,292,11.9,-999.0,54,0.00,,,0.00,open2300 v1.10,2013-05-23 19:28:00,
2013-05-23 14:33:00,89.1,69.7,30.04,WNW,292,0.0,-999.0,53,0.00,,,0.00,open2300 v1.10,2013-05-23 19:33:00,
2013-05-23 14:38:00,89.2,69.8,30.04,NW,315,4.9,-999.0,53,0.00,,,0.00,open2300 v1.10,2013-05-23 19:38:00,
2013-05-23 14:48:00,89.4,69.5,30.04,NW,315,7.8,-999.0,52,0.00,,,0.00,open2300 v1.10,2013-05-23 19:48:00,
2013-05-23 14:53:00,89.4,70.0,30.04,West,270,0.0,-999.0,53,0.00,,,0.00,open2300 v1.10,2013-05-23 19:53:00,
2013-05-23 14:59:00,89.8,70.3,30.04,WNW,292,4.5,-999.0,53,0.00,,,0.00,open2300 v1.10,2013-05-23 19:59:00,
2013-05-23 15:08:00,89.8,70.3,30.04,WNW,292,9.2,-999.0,53,0.00,,,0.00,open2300 v1.10,2013-05-23 20:08:00,
2013-05-23 15:13:00,89.8,70.3,30.04,West,270,8.7,-999.0,53,0.00,,,0.00,open2300 v1.10,2013-05-23 20:13:00,
2013-05-23 15:18:00,90.0,70.5,30.03,WNW,292,0.0,-999.0,53,0.00,,,0.00,open2300 v1.10,2013-05-23 20:18:00,
2013-05-23 15:23:00,90.0,70.5,30.03,NW,315,0.0,-999.0,53,0.00,,,0.00,open2300 v1.10,2013-05-23 20:23:00,
2013-05-23 15:28:00,90.1,70.7,30.03,WNW,292,6.3,-999.0,53,0.00,,,0.00,open2300 v1.10,2013-05-23 20:28:00,
2013-05-23 15:33:00,90.3,70.8,30.03,WNW,292,7.6,-999.0,53,0.00,,,0.00,open2300 v1.10,2013-05-23 20:33:00,
2013-05-23 15:38:00,90.3,70.8,30.03,NW,315,2.2,-999.0,53,0.00,,,0.00,open2300 v1.10,2013-05-23 20:38:00,
2013-05-23 15:43:00,90.3,70.3,30.03,NE,45,0.0,-999.0,52,0.00,,,0.00,open2300 v1.10,2013-05-23 20:43:00,
2013-05-23 15:48:00,90.3,70.3,30.02,North,0,0.0,-999.0,52,0.00,,,0.00,open2300 v1.10,2013-05-23 20:48:00,
2013-05-23 15:53:00,90.5,70.4,30.03,NW,315,0.0,-999.0,52,0.00,,,0.00,open2300 v1.10,2013-05-23 20:53:00,
2013-05-23 15:59:00,90.3,70.8,30.02,NW,315,9.8,-999.0,53,0.00,,,0.00,open2300 v1.10,2013-05-23 20:59:00,
2013-05-23 16:08:00,90.3,70.3,30.02,West,270,4.0,-999.0,52,0.00,,,0.00,open2300 v1.10,2013-05-23 21:08:00,
2013-05-23 16:13:00,90.1,70.7,30.02,NW,315,0.0,-999.0,53,0.00,,,0.00,open2300 v1.10,2013-05-23 21:13:00,
2013-05-23 16:18:00,90.1,70.1,30.02,NNW,337,6.3,-999.0,52,0.00,,,0.00,open2300 v1.10,2013-05-23 21:18:00,
2013-05-23 16:23:00,90.1,70.7,30.02,WNW,292,0.0,-999.0,53,0.00,,,0.00,open2300 v1.10,2013-05-23 21:23:00,
2013-05-23 16:28:00,90.0,69.9,30.02,NW,315,0.0,-999.0,52,0.00,,,0.00,open2300 v1.10,2013-05-23 21:28:00,
2013-05-23 16:33:00,90.1,70.7,30.02,NW,315,5.8,-999.0,53,0.00,,,0.00,open2300 v1.10,2013-05-23 21:33:00,
2013-05-23 16:38:00,90.1,70.7,30.01,WNW,292,9.2,-999.0,53,0.00,,,0.00,open2300 v1.10,2013-05-23 21:38:00,
2013-05-23 16:43:00,90.1,70.7,30.01,NW,315,0.0,-999.0,53,0.00,,,0.00,open2300 v1.10,2013-05-23 21:43:00,
2013-05-23 16:48:00,90.3,70.8,30.01,West,270,0.4,-999.0,53,0.00,,,0.00,open2300 v1.10,2013-05-23 21:48:00,
2013-05-23 16:53:00,90.5,71.0,30.01,NW,315,0.0,-999.0,53,0.00,,,0.00,open2300 v1.10,2013-05-23 21:53:00,
2013-05-23 16:59:00,90.7,71.1,30.01,NW,315,4.5,-999.0,53,0.00,,,0.00,open2300 v1.10,2013-05-23 21:59:00,
2013-05-23 17:08:00,90.7,70.6,30.01,NNE,22,0.0,-999.0,52,0.00,,,0.00,open2300 v1.10,2013-05-23 22:08:00,
2013-05-23 17:13:00,90.7,70.6,30.01,NNE,22,0.0,-999.0,52,0.00,,,0.00,open2300 v1.10,2013-05-23 22:13:00,
2013-05-23 17:18:00,90.3,70.3,30.01,SSW,202,0.0,-999.0,52,0.00,,,0.00,open2300 v1.10,2013-05-23 22:18:00,
2013-05-23 17:23:00,90.1,70.1,30.01,NNW,337,6.0,-999.0,52,0.00,,,0.00,open2300 v1.10,2013-05-23 22:23:00,
2013-05-23 17:28:00,90.1,70.1,30.01,NNE,22,3.8,-999.0,52,0.00,,,0.00,open2300 v1.10,2013-05-23 22:28:00,
2013-05-23 17:33:00,90.0,69.4,30.00,NNW,337,0.0,-999.0,51,0.00,,,0.00,open2300 v1.10,2013-05-23 22:33:00,
2013-05-23 17:38:00,89.8,70.3,30.00,ESE,112,1.1,-999.0,53,0.00,,,0.00,open2300 v1.10,2013-05-23 22:38:00,
2013-05-23 17:43:00,89.6,70.2,30.00,ESE,112,4.9,-999.0,53,0.00,,,0.00,open2300 v1.10,2013-05-23 22:43:00,
2013-05-23 17:53:00,88.9,69.5,29.99,East,90,0.0,-999.0,53,0.00,,,0.00,open2300 v1.10,2013-05-23 22:53:00,
2013-05-23 17:59:00,88.5,69.2,29.99,NNW,337,0.0,-999.0,53,0.00,,,0.00,open2300 v1.10,2013-05-23 22:59:00,
2013-05-23 18:08:00,88.3,69.6,29.99,SE,135,0.0,-999.0,54,0.00,,,0.00,open2300 v1.10,2013-05-23 23:08:00,
2013-05-23 18:13:00,88.2,69.4,29.99,ESE,112,0.0,-999.0,54,0.00,,,0.00,open2300 v1.10,2013-05-23 23:13:00,
2013-05-23 18:18:00,87.8,69.6,30.00,East,90,0.0,-999.0,55,0.00,,,0.00,open2300 v1.10,2013-05-23 23:18:00,
2013-05-23 18:23:00,87.6,70.0,30.00,East,90,0.0,-999.0,56,0.00,,,0.00,open2300 v1.10,2013-05-23 23:23:00,
2013-05-23 18:28:00,87.4,69.8,30.00,East,90,0.4,-999.0,56,0.00,,,0.00,open2300 v1.10,2013-05-23 23:28:00,
2013-05-23 18:33:00,87.1,70.0,30.01,NE,45,0.0,-999.0,57,0.00,,,0.00,open2300 v1.10,2013-05-23 23:33:00,
2013-05-23 18:38:00,86.7,69.6,30.01,NNE,22,0.0,-999.0,57,0.00,,,0.00,open2300 v1.10,2013-05-23 23:38:00,
2013-05-23 18:43:00,86.5,70.0,30.01,NE,45,0.0,-999.0,58,0.00,,,0.00,open2300 v1.10,2013-05-23 23:43:00,
2013-05-23 18:48:00,86.5,70.5,30.01,East,90,0.0,-999.0,59,0.00,,,0.00,open2300 v1.10,2013-05-23 23:48:00,
2013-05-23 18:53:00,86.4,70.3,30.01,North,0,0.0,-999.0,59,0.00,,,0.00,open2300 v1.10,2013-05-23 23:53:00,
2013-05-23 18:59:00,86.2,70.2,30.01,ENE,67,0.0,-999.0,59,0.00,,,0.00,open2300 v1.10,2013-05-23 23:59:00,
2013-05-23 19:08:00,85.8,70.4,30.02,ENE,67,0.0,-999.0,60,0.00,,,0.00,open2300 v1.10,2013-05-24 00:08:00,
2013-05-23 19:13:00,85.6,70.2,30.02,ENE,67,0.0,-999.0,60,0.00,,,0.00,open2300 v1.10,2013-05-24 00:13:00,
2013-05-23 19:18:00,85.3,69.9,30.02,ESE,112,0.0,-999.0,60,0.00,,,0.00,open2300 v1.10,2013-05-24 00:18:00,
2013-05-23 19:23:00,85.3,70.3,30.02,ESE,112,0.2,-999.0,61,0.00,,,0.00,open2300 v1.10,2013-05-24 00:23:00,
2013-05-23 19:28:00,85.1,70.2,30.02,ESE,112,0.0,-999.0,61,0.00,,,0.00,open2300 v1.10,2013-05-24 00:28:00,
2013-05-23 19:33:00,84.9,70.4,30.02,ESE,112,0.0,-999.0,62,0.00,,,0.00,open2300 v1.10,2013-05-24 00:33:00,
2013-05-23 19:38:00,84.9,70.4,30.02,ESE,112,0.0,-999.0,62,0.00,,,0.00,open2300 v1.10,2013-05-24 00:38:00,
2013-05-23 19:43:00,84.7,70.3,30.02,ESE,112,0.0,-999.0,62,0.00,,,0.00,open2300 v1.10,2013-05-24 00:43:00,
2013-05-23 19:53:00,84.4,70.4,30.01,ESE,112,0.0,-999.0,63,0.00,,,0.00,open2300 v1.10,2013-05-24 00:53:00,
2013-05-23 19:59:00,84.0,70.1,30.02,ESE,112,0.0,-999.0,63,0.00,,,0.00,open2300 v1.10,2013-05-24 00:59:00,
2013-05-23 20:08:00,83.5,69.5,30.02,ESE,112,0.0,-999.0,63,0.00,,,0.00,open2300 v1.10,2013-05-24 01:08:00,
2013-05-23 20:13:00,83.3,69.3,30.03,ESE,112,0.0,-999.0,63,0.00,,,0.00,open2300 v1.10,2013-05-24 01:13:00,
2013-05-23 20:18:00,82.9,69.4,30.02,ESE,112,0.0,-999.0,64,0.00,,,0.00,open2300 v1.10,2013-05-24 01:18:00,
2013-05-23 20:23:00,82.9,69.9,30.02,ESE,112,0.0,-999.0,65,0.00,,,0.00,open2300 v1.10,2013-05-24 01:23:00,
2013-05-23 20:28:00,82.8,69.7,30.02,ESE,112,0.0,-999.0,65,0.00,,,0.00,open2300 v1.10,2013-05-24 01:28:00,
2013-05-23 20:33:00,82.6,70.0,30.02,ESE,112,0.0,-999.0,66,0.00,,,0.00,open2300 v1.10,2013-05-24 01:33:00,
2013-05-23 20:38:00,82.4,69.8,30.02,ESE,112,0.0,-999.0,66,0.00,,,0.00,open2300 v1.10,2013-05-24 01:38:00,
2013-05-23 20:43:00,82.2,70.1,30.02,ESE,112,0.0,-999.0,67,0.00,,,0.00,open2300 v1.10,2013-05-24 01:43:00,
2013-05-23 20:48:00,82.2,70.1,30.03,ESE,112,0.0,-999.0,67,0.00,,,0.00,open2300 v1.10,2013-05-24 01:48:00,
2013-05-23 20:53:00,82.0,69.9,30.03,ESE,112,0.0,-999.0,67,0.00,,,0.00,open2300 v1.10,2013-05-24 01:53:00,
2013-05-23 20:59:00,81.7,70.1,30.03,ESE,112,0.0,-999.0,68,0.00,,,0.00,open2300 v1.10,2013-05-24 01:59:00,
2013-05-23 21:08:00,81.3,70.2,30.04,ESE,112,0.0,-999.0,69,0.00,,,0.00,open2300 v1.10,2013-05-24 02:08:00,
2013-05-23 21:13:00,81.1,70.0,30.04,ESE,112,0.0,-999.0,69,0.00,,,0.00,open2300 v1.10,2013-05-24 02:13:00,
2013-05-23 21:18:00,81.0,69.8,30.04,ESE,112,0.0,-999.0,69,0.00,,,0.00,open2300 v1.10,2013-05-24 02:18:00,
2013-05-23 21:23:00,80.8,69.7,30.04,ESE,112,0.0,-999.0,69,0.00,,,0.00,open2300 v1.10,2013-05-24 02:23:00,
2013-05-23 21:28:00,80.8,70.1,30.05,ESE,112,0.0,-999.0,70,0.00,,,0.00,open2300 v1.10,2013-05-24 02:28:00,
2013-05-23 21:33:00,80.8,70.5,30.05,ESE,112,0.0,-999.0,71,0.00,,,0.00,open2300 v1.10,2013-05-24 02:33:00,
2013-05-23 21:38:00,80.8,70.5,30.06,ESE,112,0.0,-999.0,71,0.00,,,0.00,open2300 v1.10,2013-05-24 02:38:00,
2013-05-23 21:43:00,80.8,70.5,30.05,ESE,112,0.0,-999.0,71,0.00,,,0.00,open2300 v1.10,2013-05-24 02:43:00,
2013-05-23 21:48:00,80.8,70.5,30.06,ESE,112,0.0,-999.0,71,0.00,,,0.00,open2300 v1.10,2013-05-24 02:48:00,
2013-05-23 21:53:00,80.8,70.5,30.06,ESE,112,0.0,-999.0,71,0.00,,,0.00,open2300 v1.10,2013-05-24 02:53:00,
2013-05-23 21:59:00,80.4,70.2,30.06,ESE,112,0.0,-999.0,71,0.00,,,0.00,open2300 v1.10,2013-05-24 02:59:00,
2013-05-23 22:08:00,80.2,70.4,30.07,ESE,112,0.0,-999.0,72,0.00,,,0.00,open2300 v1.10,2013-05-24 03:08:00,
2013-05-23 22:13:00,80.2,70.4,30.06,ESE,112,0.0,-999.0,72,0.00,,,0.00,open2300 v1.10,2013-05-24 03:13:00,
2013-05-23 22:18:00,79.7,69.9,30.07,ESE,112,0.0,-999.0,72,0.00,,,0.00,open2300 v1.10,2013-05-24 03:18:00,
2013-05-23 22:23:00,79.5,69.7,30.07,ESE,112,0.0,-999.0,72,0.00,,,0.00,open2300 v1.10,2013-05-24 03:23:00,
2013-05-23 22:28:00,79.3,69.9,30.07,ESE,112,0.0,-999.0,73,0.00,,,0.00,open2300 v1.10,2013-05-24 03:28:00,
2013-05-23 22:38:00,78.8,69.8,30.07,ESE,112,0.0,-999.0,74,0.00,,,0.00,open2300 v1.10,2013-05-24 03:38:00,
2013-05-23 22:48:00,78.6,70.0,30.06,ESE,112,0.0,-999.0,75,0.00,,,0.00,open2300 v1.10,2013-05-24 03:48:00,
2013-05-23 22:54:00,78.4,69.8,30.06,ESE,112,0.0,-999.0,75,0.00,,,0.00,open2300 v1.10,2013-05-24 03:54:00,
2013-05-23 22:59:00,78.1,69.5,30.07,ESE,112,0.0,-999.0,75,0.00,,,0.00,open2300 v1.10,2013-05-24 03:59:00,
2013-05-23 23:03:00,77.9,69.3,30.06,ESE,112,0.0,-999.0,75,0.00,,,0.00,open2300 v1.10,2013-05-24 04:03:00,
2013-05-23 23:08:00,77.9,69.7,30.06,ESE,112,0.0,-999.0,76,0.00,,,0.00,open2300 v1.10,2013-05-24 04:08:00,
2013-05-23 23:13:00,77.7,69.5,30.07,ESE,112,0.0,-999.0,76,0.00,,,0.00,open2300 v1.10,2013-05-24 04:13:00,
2013-05-23 23:18:00,77.5,69.3,30.07,ESE,112,0.0,-999.0,76,0.00,,,0.00,open2300 v1.10,2013-05-24 04:18:00,
2013-05-23 23:23:00,77.5,69.7,30.06,ESE,112,0.0,-999.0,77,0.00,,,0.00,open2300 v1.10,2013-05-24 04:23:00,
2013-05-23 23:28:00,77.5,69.7,30.06,ESE,112,0.0,-999.0,77,0.00,,,0.00,open2300 v1.10,2013-05-24 04:28:00,
2013-05-23 23:33:00,77.5,69.7,30.06,ESE,112,0.0,-999.0,77,0.00,,,0.00,open2300 v1.10,2013-05-24 04:33:00,
2013-05-23 23:38:00,77.5,69.7,30.06,ESE,112,0.0,-999.0,77,0.00,,,0.00,open2300 v1.10,2013-05-24 04:38:00,
2013-05-23 23:43:00,77.5,69.7,30.06,ESE,112,0.0,-999.0,77,0.00,,,0.00,open2300 v1.10,2013-05-24 04:43:00,
2013-05-23 23:48:00,77.4,69.6,30.06,ESE,112,0.0,-999.0,77,0.00,,,0.00,open2300 v1.10,2013-05-24 04:48:00,
2013-05-23 23:53:00,77.4,69.6,30.06,ESE,112,0.0,-999.0,77,0.00,,,0.00,open2300 v1.10,2013-05-24 04:53:00,
2013-05-23 23:58:00,77.4,69.6,30.06,ESE,112,0.0,-999.0,77,0.00,,,0.00,open2300 v1.10,2013-05-24 04:58:00,